createdAt,value
2022-10-29T00:01:31.337Z,19.48
2022-10-29T00:05:34.108Z,19.61
2022-10-29T00:09:35.656Z,19.43
2022-10-29T00:13:35.854Z,19.52
2022-10-29T00:17:37.520Z,19.30
2022-10-29T00:21:40.619Z,19.24
2022-10-29T00:25:40.734Z,19.14
2022-10-29T00:29:40.877Z,19.12
2022-10-29T00:33:41.021Z,19.06
2022-10-29T00:37:43.692Z,19.08
2022-10-29T00:41:44.471Z,19.27
2022-10-29T00:45:52.353Z,19.14
2022-10-29T00:49:58.898Z,18.93
2022-10-29T00:54:06.944Z,18.91
2022-10-29T00:58:07.688Z,18.89
2022-10-29T01:02:08.135Z,18.88
2022-10-29T01:06:10.124Z,18.81
2022-10-29T01:10:15.342Z,18.84
2022-10-29T01:14:33.168Z,18.91
2022-10-29T01:18:45.246Z,18.89
2022-10-29T01:22:53.466Z,18.81
2022-10-29T01:27:42.769Z,18.61
2022-10-29T01:31:50.738Z,18.64
2022-10-29T01:36:00.620Z,18.55
2022-10-29T01:40:09.215Z,18.08
2022-10-29T01:44:20.151Z,18.51
2022-10-29T01:48:33.120Z,18.44
2022-10-29T01:52:38.214Z,18.16
2022-10-29T01:56:38.386Z,18.11
2022-10-29T02:00:52.122Z,18.20
2022-10-29T02:05:17.482Z,18.14
2022-10-29T02:09:30.336Z,18.20
2022-10-29T02:13:38.868Z,18.15
2022-10-29T02:17:40.213Z,17.83
2022-10-29T02:21:44.473Z,18.18
2022-10-29T02:25:44.654Z,18.13
2022-10-29T02:29:44.816Z,17.98
2022-10-29T02:33:44.999Z,18.05
2022-10-29T02:37:47.657Z,17.99
2022-10-29T02:41:47.699Z,17.89
2022-10-29T02:45:47.915Z,17.98
2022-10-29T02:49:48.014Z,17.89
2022-10-29T02:53:50.735Z,17.94
2022-10-29T02:57:50.829Z,17.82
2022-10-29T03:01:51.184Z,17.78
2022-10-29T03:05:51.434Z,17.68
2022-10-29T03:09:54.093Z,17.57
2022-10-29T03:13:54.191Z,17.63
2022-10-29T03:17:54.724Z,17.59
2022-10-29T03:21:55.187Z,17.36
2022-10-29T03:25:59.095Z,17.60
2022-10-29T03:29:59.281Z,17.03
2022-10-29T03:33:59.426Z,17.53
2022-10-29T03:37:59.511Z,17.52
2022-10-29T03:42:04.127Z,17.60
2022-10-29T03:46:04.215Z,17.62
2022-10-29T03:50:04.745Z,17.52
2022-10-29T03:54:05.332Z,17.42
2022-10-29T03:58:08.081Z,17.52
2022-10-29T04:02:08.356Z,17.28
2022-10-29T04:06:14.478Z,17.08
2022-10-29T04:10:14.847Z,16.96
2022-10-29T04:14:17.604Z,16.98
2022-10-29T04:18:17.795Z,17.00
2022-10-29T04:31:00.866Z,16.69
2022-10-29T04:35:00.919Z,16.70
2022-10-29T04:39:01.116Z,16.74
2022-10-29T04:43:01.512Z,16.71
2022-10-29T04:47:04.113Z,16.81
2022-10-29T04:51:04.505Z,16.77
2022-10-29T04:55:04.558Z,16.66
2022-10-29T04:59:04.720Z,16.54
2022-10-29T05:03:07.622Z,16.51
2022-10-29T05:07:07.686Z,16.45
2022-10-29T05:11:09.220Z,16.39
2022-10-29T05:15:10.618Z,16.59
2022-10-29T05:19:13.484Z,16.63
2022-10-29T05:23:15.071Z,16.52
2022-10-29T05:27:15.284Z,16.56
2022-10-29T05:31:15.447Z,16.51
2022-10-29T05:35:18.360Z,16.56
2022-10-29T05:39:18.840Z,16.59
2022-10-29T05:43:20.484Z,16.54
2022-10-29T05:47:21.118Z,16.80
2022-10-29T05:51:24.092Z,16.91
2022-10-29T05:55:24.227Z,16.93
2022-10-29T05:59:25.381Z,16.97
2022-10-29T06:03:27.696Z,17.04
2022-10-29T06:07:30.384Z,17.27
2022-10-29T06:11:30.496Z,17.31
2022-10-29T06:15:30.690Z,17.34
2022-10-29T06:19:30.793Z,17.47
2022-10-29T06:23:33.824Z,17.59
2022-10-29T06:27:33.917Z,17.70
2022-10-29T06:31:34.143Z,17.69
2022-10-29T06:39:37.801Z,17.88
2022-10-29T06:43:38.358Z,18.21
2022-10-29T06:47:42.895Z,18.08
2022-10-29T06:51:42.993Z,18.50
2022-10-29T06:55:45.766Z,18.88
2022-10-29T06:59:45.894Z,19.08
2022-10-29T07:03:45.994Z,19.10
2022-10-29T07:07:46.146Z,19.21
2022-10-29T07:11:48.894Z,19.49
2022-10-29T07:15:49.237Z,19.70
2022-10-29T07:19:49.284Z,19.95
2022-10-29T07:23:49.431Z,20.01
2022-10-29T07:27:52.672Z,20.08
2022-10-29T07:31:52.870Z,19.64
2022-10-29T07:35:52.971Z,20.20
2022-10-29T07:39:53.066Z,20.23
2022-10-29T07:43:55.852Z,20.32
2022-10-29T07:48:03.377Z,20.53
2022-10-29T07:52:03.587Z,20.80
2022-10-29T07:56:03.696Z,20.82
2022-10-29T08:00:07.232Z,20.81
2022-10-29T08:04:12.160Z,20.68
2022-10-29T08:08:12.253Z,20.81
2022-10-29T08:12:14.135Z,20.92
2022-10-29T08:16:16.886Z,21.05
2022-10-29T08:20:17.823Z,21.24
2022-10-29T08:24:18.931Z,21.28
2022-10-29T08:28:20.885Z,21.51
2022-10-29T08:32:24.573Z,21.62
2022-10-29T08:36:24.815Z,21.62
2022-10-29T08:40:33.484Z,21.64
2022-10-29T08:45:21.508Z,21.58
2022-10-29T08:49:30.068Z,21.62
2022-10-29T08:53:41.336Z,21.80
2022-10-29T08:57:46.781Z,21.94
2022-10-29T09:01:47.371Z,22.23
2022-10-29T09:06:03.487Z,22.34
2022-10-29T09:10:14.051Z,23.13
2022-10-29T09:14:51.802Z,23.17
2022-10-29T09:19:19.628Z,23.33
2022-10-29T09:23:37.492Z,23.45
2022-10-29T09:27:56.400Z,23.20
2022-10-29T09:32:03.405Z,23.40
2022-10-29T09:36:04.799Z,23.56
2022-10-29T09:40:16.210Z,23.77
2022-10-29T09:44:25.794Z,24.13
2022-10-29T09:48:35.652Z,23.90
2022-10-29T09:52:39.657Z,24.39
2022-10-29T09:56:45.987Z,25.13
2022-10-29T10:00:46.056Z,24.77
2022-10-29T10:04:51.212Z,24.65
2022-10-29T10:09:06.146Z,24.33
2022-10-29T10:13:17.715Z,24.78
2022-10-29T10:17:19.723Z,25.42
2022-10-29T10:21:30.531Z,25.84
2022-10-29T10:25:42.902Z,25.83
2022-10-29T10:29:45.715Z,26.14
2022-10-29T10:33:56.056Z,26.47
2022-10-29T10:37:57.463Z,25.92
2022-10-29T10:42:01.081Z,26.49
2022-10-29T10:46:16.495Z,26.44
2022-10-29T10:50:24.519Z,26.82
2022-10-29T10:54:34.059Z,26.79
2022-10-29T10:58:44.366Z,26.44
2022-10-29T11:02:57.360Z,27.74
2022-10-29T11:07:05.297Z,28.51
2022-10-29T11:11:13.219Z,29.38
2022-10-29T11:15:19.760Z,30.13
2022-10-29T11:19:34.143Z,30.93
2022-10-29T11:23:51.563Z,31.47
2022-10-29T11:28:01.690Z,32.18
2022-10-29T11:32:11.824Z,32.81
2022-10-29T11:36:23.308Z,33.03
2022-10-29T11:40:33.398Z,33.06
2022-10-29T11:44:41.825Z,33.39
2022-10-29T11:49:02.051Z,33.59
2022-10-29T11:53:23.975Z,33.45
2022-10-29T11:57:36.864Z,34.62
2022-10-29T12:01:47.418Z,34.90
2022-10-29T12:05:58.989Z,34.16
2022-10-29T12:10:41.446Z,33.80
2022-10-29T12:14:50.239Z,34.28
2022-10-29T12:19:02.053Z,33.24
2022-10-29T12:23:15.101Z,33.34
2022-10-29T12:27:32.820Z,32.81
2022-10-29T12:31:42.555Z,32.02
2022-10-29T12:35:50.700Z,31.63
2022-10-29T12:39:58.412Z,31.45
2022-10-29T12:44:12.538Z,30.21
2022-10-29T12:48:20.855Z,29.98
2022-10-29T12:52:32.811Z,30.16
2022-10-29T12:56:33.868Z,30.47
2022-10-29T13:00:50.328Z,31.80
2022-10-29T13:05:20.567Z,32.06
2022-10-29T13:09:24.443Z,32.61
2022-10-29T13:13:45.036Z,32.70
2022-10-29T13:17:54.218Z,32.76
2022-10-29T13:22:04.800Z,33.08
2022-10-29T13:26:06.384Z,32.71
2022-10-29T13:30:23.957Z,31.86
2022-10-29T13:34:58.712Z,31.50
2022-10-29T13:39:07.930Z,31.40
2022-10-29T13:43:20.059Z,31.10
2022-10-29T13:47:24.465Z,31.33
2022-10-29T13:51:38.174Z,31.56
2022-10-29T13:55:44.491Z,31.75
2022-10-29T13:59:50.229Z,31.64
2022-10-29T14:04:03.991Z,31.12
2022-10-29T14:08:16.450Z,30.60
2022-10-29T14:12:25.281Z,30.46
2022-10-29T14:16:32.859Z,30.47
2022-10-29T14:20:33.027Z,30.56
2022-10-29T14:24:41.039Z,30.44
2022-10-29T14:28:41.173Z,30.44
2022-10-29T14:32:45.443Z,30.64
2022-10-29T14:36:50.131Z,30.51
2022-10-29T14:40:52.977Z,30.28
2022-10-29T14:44:58.448Z,29.85
2022-10-29T14:49:06.353Z,29.83
2022-10-29T14:53:25.383Z,29.88
2022-10-29T14:57:35.319Z,29.66
2022-10-29T15:01:35.532Z,29.50
2022-10-29T15:05:38.948Z,28.71
2022-10-29T15:09:39.149Z,28.66
2022-10-29T15:13:41.921Z,27.99
2022-10-29T15:17:53.829Z,27.74
2022-10-29T15:21:54.311Z,27.56
2022-10-29T15:26:00.987Z,27.17
2022-10-29T15:30:03.924Z,26.98
2022-10-29T15:34:12.880Z,26.48
2022-10-29T15:38:55.337Z,26.61
2022-10-29T15:42:57.128Z,26.66
2022-10-29T15:47:02.584Z,26.40
2022-10-29T15:51:03.334Z,26.49
2022-10-29T15:55:05.564Z,26.37
2022-10-29T15:59:05.679Z,25.93
2022-10-29T16:03:18.394Z,25.96
2022-10-29T16:07:20.594Z,25.72
2022-10-29T16:11:23.540Z,25.53
2022-10-29T16:15:25.022Z,25.45
2022-10-29T16:19:27.727Z,25.49
2022-10-29T16:23:27.993Z,25.20
2022-10-29T16:27:28.373Z,24.84
2022-10-29T16:31:31.328Z,24.90
2022-10-29T16:35:34.350Z,24.77
2022-10-29T16:39:34.452Z,24.64
2022-10-29T16:43:34.581Z,24.47
2022-10-29T16:47:34.762Z,24.47
2022-10-29T16:51:37.484Z,24.54
2022-10-29T16:55:41.043Z,24.40
2022-10-29T16:59:41.218Z,24.26
2022-10-29T17:03:42.539Z,24.09
2022-10-29T17:07:45.821Z,24.02
2022-10-29T17:11:46.416Z,24.01
2022-10-29T17:15:46.655Z,24.02
2022-10-29T17:19:46.730Z,24.00
2022-10-29T17:23:49.400Z,23.88
2022-10-29T17:27:49.482Z,23.76
2022-10-29T17:31:49.944Z,23.73
2022-10-29T17:35:50.302Z,23.78
2022-10-29T17:39:52.938Z,23.66
2022-10-29T17:43:53.079Z,23.89
2022-10-29T17:47:58.127Z,23.76
2022-10-29T17:51:58.509Z,23.79
2022-10-29T17:56:03.905Z,23.76
2022-10-29T18:00:04.393Z,23.61
2022-10-29T18:04:05.377Z,23.71
2022-10-29T18:08:05.508Z,23.47
2022-10-29T18:12:08.712Z,23.45
2022-10-29T18:16:10.569Z,23.27
2022-10-29T18:20:12.199Z,23.49
2022-10-29T18:24:13.306Z,23.33
2022-10-29T18:28:16.110Z,23.19
2022-10-29T18:32:16.258Z,22.88
2022-10-29T18:36:16.411Z,23.02
2022-10-29T18:40:16.698Z,23.12
2022-10-29T18:44:19.464Z,22.96
2022-10-29T18:48:19.659Z,22.88
2022-10-29T18:52:20.226Z,22.82
2022-10-29T18:56:23.259Z,22.73
2022-10-29T19:00:26.028Z,22.64
2022-10-29T19:04:26.400Z,22.60
2022-10-29T19:08:26.595Z,22.18
2022-10-29T19:12:26.818Z,22.11
2022-10-29T19:16:31.929Z,21.78
2022-10-29T19:20:33.275Z,21.76
2022-10-29T19:24:33.407Z,21.49
2022-10-29T19:28:33.921Z,21.54
2022-10-29T19:32:36.703Z,21.63
2022-10-29T19:36:40.365Z,21.58
2022-10-29T19:40:40.657Z,21.46
2022-10-29T19:44:40.807Z,21.58
2022-10-29T19:48:44.035Z,21.37
2022-10-29T19:52:44.246Z,21.36
2022-10-29T19:56:44.431Z,21.09
2022-10-29T20:00:44.582Z,21.24
2022-10-29T20:04:47.329Z,20.98
2022-10-29T20:08:47.540Z,20.90
2022-10-29T20:12:48.041Z,20.80
2022-10-29T20:16:48.117Z,20.76
2022-10-29T20:20:57.649Z,20.66
2022-10-29T20:24:57.797Z,20.60
2022-10-29T20:28:58.519Z,20.77
2022-10-29T20:32:59.550Z,20.81
2022-10-29T20:37:02.492Z,20.73
2022-10-29T20:41:02.659Z,20.75
2022-10-29T20:45:05.754Z,20.73
2022-10-29T20:49:06.248Z,20.80
2022-10-29T20:57:29.088Z,20.84
2022-10-29T21:01:29.426Z,20.68
2022-10-29T21:05:29.623Z,20.87
2022-10-29T21:09:32.347Z,20.85
2022-10-29T21:13:33.157Z,20.75
2022-10-29T21:17:33.307Z,20.91
2022-10-29T21:21:33.557Z,20.78
2022-10-29T21:25:36.236Z,20.79
2022-10-29T21:29:36.484Z,20.51
2022-10-29T21:33:36.796Z,20.41
2022-10-29T21:37:36.887Z,20.27
2022-10-29T21:41:40.107Z,20.17
2022-10-29T21:45:40.234Z,20.02
2022-10-29T21:49:40.473Z,20.01
2022-10-29T21:53:40.999Z,20.06
2022-10-29T21:57:46.132Z,20.03
2022-10-29T22:01:46.373Z,20.00
2022-10-29T22:05:46.600Z,20.11
2022-10-29T22:09:46.651Z,20.16
2022-10-29T22:13:49.408Z,20.03
2022-10-29T22:17:49.995Z,19.98
2022-10-29T22:21:50.077Z,19.99
2022-10-29T22:25:53.735Z,19.91
2022-10-29T22:29:56.390Z,19.90
2022-10-29T22:33:56.721Z,19.79
2022-10-29T22:42:16.820Z,19.62
2022-10-29T22:46:21.623Z,19.67
2022-10-29T22:50:21.961Z,19.49
2022-10-29T22:54:22.094Z,19.45
2022-10-29T22:58:22.242Z,19.32
2022-10-29T23:02:24.988Z,19.56
2022-10-29T23:06:27.251Z,19.66
2022-10-29T23:10:27.349Z,19.60
2022-10-29T23:14:27.496Z,19.51
2022-10-29T23:18:30.171Z,19.43
2022-10-29T23:22:30.392Z,19.44
2022-10-29T23:26:30.811Z,19.50
2022-10-29T23:30:30.932Z,19.58
2022-10-29T23:34:33.638Z,19.66
2022-10-29T23:38:33.832Z,19.77
2022-10-29T23:42:34.037Z,19.81
2022-10-29T23:46:34.118Z,19.82
2022-10-29T23:50:36.846Z,19.81
2022-10-29T23:54:36.997Z,19.83
2022-10-29T23:58:37.090Z,19.53
